Time;durP1;ratioP1;P1;durP2;ratioP2;P2;SDS_P1;SDS_P2;PMS_P1;PMS_P2;Temp;Humidity;BMP_temperature;BMP_pressure;BME280_temperature;BME280_humidity;BME280_pressure;Samples;Min_cycle;Max_cycle;Signal;HPM_P1;HPM_P2
2022/04/08 03:48:47;;;;;;;1.90;1.80;;;;;;;12.32;68.16;98831.75;6548139;27;20040;-89
2022/04/08 03:51:50;;;;;;;3.55;1.65;;;;;;;12.19;69.83;98842.69;6554498;27;33982;-89
2022/04/08 03:54:55;;;;;;;3.17;1.52;;;;;;;12.07;71.91;98860.69;6554632;27;34176;-88
2022/04/08 03:57:57;;;;;;;3.05;1.10;;;;;;;11.90;74.46;98868.53;6532494;27;33001;-88
2022/04/08 04:01:00;;;;;;;1.42;1.15;;;;;;;11.76;76.85;98878.63;6551664;27;34256;-88
2022/04/08 04:04:03;;;;;;;1.50;1.40;;;;;;;11.69;78.78;98872.44;6552080;27;33960;-88
2022/04/08 04:07:06;;;;;;;1.08;1.00;;;;;;;11.52;80.42;98859.56;6556363;27;33992;-88
2022/04/08 04:10:11;;;;;;;2.60;1.40;;;;;;;11.40;81.64;98866.69;6556391;27;34443;-88
2022/04/08 04:13:14;;;;;;;2.67;1.42;;;;;;;11.34;81.99;98859.50;6552670;27;33971;-88
2022/04/08 04:16:17;;;;;;;3.70;1.30;;;;;;;11.27;82.77;98843.37;6556628;27;33976;-88
2022/04/08 04:19:20;;;;;;;1.33;1.20;;;;;;;11.12;83.61;98827.56;6559714;27;34478;-88
2022/04/08 04:22:23;;;;;;;1.30;1.20;;;;;;;11.06;80.55;98825.75;6559792;27;34268;-88
2022/04/08 04:25:26;;;;;;;2.80;1.17;;;;;;;11.06;78.21;98841.91;6563912;27;34022;-88
2022/04/08 04:28:33;;;;;;;2.92;1.58;;;;;;;11.08;79.42;98837.09;6549076;27;32721;-88
2022/04/08 04:31:35;;;;;;;1.35;1.08;;;;;;;10.96;81.55;98851.50;6558981;27;34123;-88
2022/04/08 04:34:38;;;;;;;2.67;1.27;;;;;;;11.06;77.54;98852.66;6554833;27;33755;-88
2022/04/08 04:37:41;;;;;;;2.40;1.08;;;;;;;11.03;72.79;98839.66;6554144;27;33981;-88
2022/04/08 04:40:44;;;;;;;3.12;1.10;;;;;;;11.01;74.34;98832.81;6552861;27;34801;-87
2022/04/08 04:43:46;;;;;;;0.80;0.80;;;;;;;11.04;71.44;98830.50;6554256;27;35460;-87
2022/04/08 04:46:49;;;;;;;7.12;1.30;;;;;;;11.06;69.35;98820.34;6538566;27;32834;-87
2022/04/08 04:49:52;;;;;;;5.12;1.17;;;;;;;10.96;68.52;98822.69;6553562;27;34051;-87
2022/04/08 04:52:55;;;;;;;3.62;1.08;;;;;;;10.81;67.88;98806.84;6555160;27;34624;-87
2022/04/08 04:55:58;;;;;;;1.95;1.10;;;;;;;10.80;67.40;98829.44;6553377;27;34429;-87
2022/04/08 04:59:01;;;;;;;3.37;1.20;;;;;;;10.84;64.46;98824.44;6530757;27;32698;-87
2022/04/08 05:02:11;;;;;;;2.92;1.90;;;;;;;10.89;65.47;98846.16;6554494;27;33743;-87
2022/04/08 05:05:14;;;;;;;2.17;1.50;;;;;;;10.81;64.00;98839.16;6536163;27;33887;-87
2022/04/08 05:08:17;;;;;;;3.65;1.10;;;;;;;10.75;63.54;98853.50;6553681;27;34120;-87
2022/04/08 05:11:20;;;;;;;3.95;1.40;;;;;;;10.80;61.61;98859.06;6552828;27;34715;-87
2022/04/08 05:14:24;;;;;;;2.35;1.30;;;;;;;10.84;59.90;98878.28;6554332;27;34787;-87
2022/04/08 05:17:28;;;;;;;2.22;1.20;;;;;;;11.09;54.53;98870.25;6535479;27;32337;-87
2022/04/08 05:20:31;;;;;;;3.50;1.85;;;;;;;11.37;53.14;98869.81;6530275;27;34058;-87
2022/04/08 05:23:34;;;;;;;2.72;1.30;;;;;;;11.52;51.02;98873.03;6528602;27;33436;-87
2022/04/08 05:26:37;;;;;;;4.07;1.50;;;;;;;11.78;48.39;98860.31;6533204;27;32292;-87
2022/04/08 05:29:40;;;;;;;4.97;1.70;;;;;;;11.86;48.41;98856.56;6533100;27;32918;-87
2022/04/08 05:32:43;;;;;;;3.65;1.25;;;;;;;11.77;49.50;98872.16;6555439;27;34380;-87
2022/04/08 05:35:46;;;;;;;5.25;1.60;;;;;;;11.73;51.11;98873.69;6553599;27;33898;-87
2022/04/08 05:38:48;;;;;;;3.53;1.55;;;;;;;11.45;52.67;98888.41;6559092;27;34248;-87
2022/04/08 05:41:51;;;;;;;5.37;1.55;;;;;;;11.31;54.17;98890.38;6554175;27;34826;-87
2022/04/08 05:44:54;;;;;;;5.10;1.50;;;;;;;11.20;54.94;98903.72;6528609;27;144037;-87
2022/04/08 05:48:03;;;;;;;4.18;1.42;;;;;;;11.20;51.05;98901.03;6537371;27;32772;-87
2022/04/08 05:51:05;;;;;;;3.80;1.40;;;;;;;11.26;52.13;98927.97;6557914;27;33708;-87
2022/04/08 05:54:08;;;;;;;4.00;1.50;;;;;;;11.38;51.54;98935.31;6552767;27;34779;-87
2022/04/08 05:57:11;;;;;;;5.20;2.00;;;;;;;11.49;48.90;98943.50;6553164;27;33712;-87
2022/04/08 06:00:15;;;;;;;3.92;1.48;;;;;;;11.61;48.30;98948.19;6552883;27;33949;-87
2022/04/08 06:03:18;;;;;;;5.47;1.33;;;;;;;11.64;49.44;98950.47;6539498;27;32745;-87
2022/04/08 06:06:21;;;;;;;3.53;1.40;;;;;;;11.67;48.29;98934.69;6553145;27;33768;-87
2022/04/08 06:09:24;;;;;;;3.92;1.52;;;;;;;11.62;50.40;98956.09;6552829;27;34116;-87
2022/04/08 06:12:27;;;;;;;2.78;1.08;;;;;;;11.66;50.90;98972.63;6553273;27;33853;-87
2022/04/08 06:15:31;;;;;;;4.62;1.48;;;;;;;11.69;47.43;98986.50;6535795;27;32428;-87
2022/04/08 06:18:34;;;;;;;3.30;1.27;;;;;;;11.78;46.14;99005.94;6552149;27;33938;-87
2022/04/08 06:21:36;;;;;;;7.35;2.03;;;;;;;11.96;45.28;98992.56;6532113;27;33711;-86
2022/04/08 06:24:39;;;;;;;2.35;1.23;;;;;;;12.15;44.87;99008.78;6536997;27;32756;-87
2022/04/08 06:27:44;;;;;;;3.47;1.65;;;;;;;12.15;44.59;99012.28;6559688;27;34857;-87
2022/04/08 06:30:47;;;;;;;3.87;1.23;;;;;;;12.10;43.56;99001.34;6556300;27;34061;-87
2022/04/08 06:33:50;;;;;;;4.95;1.52;;;;;;;12.06;44.31;99002.84;6556199;27;35478;-87
2022/04/08 06:36:52;;;;;;;2.15;1.00;;;;;;;12.01;43.65;99000.78;6532521;27;32974;-90
2022/04/08 06:39:56;;;;;;;6.12;1.80;;;;;;;12.06;43.75;99000.13;6552203;27;34088;-91
2022/04/08 06:43:03;;;;;;;4.12;1.52;;;;;;;12.06;44.39;99010.09;6551504;27;34113;-90
2022/04/08 06:46:06;;;;;;;3.10;1.12;;;;;;;12.03;42.69;99022.16;6553365;27;34225;-87
2022/04/08 06:49:09;;;;;;;2.30;1.00;;;;;;;12.05;43.54;99022.78;6531692;27;32481;-87
2022/04/08 06:52:12;;;;;;;3.62;1.08;;;;;;;12.10;43.90;99014.00;6552525;27;33896;-87
2022/04/08 06:55:15;;;;;;;4.60;1.60;;;;;;;12.14;43.27;99017.91;6552659;27;35302;-87
2022/04/08 06:58:19;;;;;;;4.95;1.27;;;;;;;12.19;42.15;99034.25;6552876;27;34054;-87
2022/04/08 07:01:23;;;;;;;3.42;1.20;;;;;;;12.15;42.62;99039.28;6532903;27;32116;-86
2022/04/08 07:04:26;;;;;;;4.55;1.50;;;;;;;12.10;42.46;99047.19;6552286;27;34089;-87
2022/04/08 07:07:32;;;;;;;3.40;1.23;;;;;;;12.09;43.27;99050.13;6553902;27;35288;-86
2022/04/08 07:10:35;;;;;;;2.78;1.00;;;;;;;12.08;42.04;99053.84;6534564;27;32717;-88
2022/04/08 07:13:41;;;;;;;3.05;0.98;;;;;;;12.14;42.16;99055.66;6551469;27;34405;-88
2022/04/08 07:16:46;;;;;;;6.47;3.08;;;;;;;12.21;42.69;99080.72;6532224;27;34040;-88
2022/04/08 07:19:49;;;;;;;1.83;1.40;;;;;;;12.31;41.29;99075.66;6551417;27;33679;-85
2022/04/08 07:22:52;;;;;;;2.03;1.23;;;;;;;12.36;41.33;99070.41;6551856;27;34397;-85
2022/04/08 07:25:54;;;;;;;5.32;1.37;;;;;;;12.39;41.58;99080.78;6539706;27;32497;-86
2022/04/08 07:28:57;;;;;;;3.80;1.10;;;;;;;12.39;41.44;99086.16;6531637;27;33583;-86
2022/04/08 07:32:00;;;;;;;4.87;1.50;;;;;;;12.49;41.39;99091.09;6551241;27;34753;-87
2022/04/08 07:35:03;;;;;;;3.55;1.33;;;;;;;12.62;41.34;99104.44;6551400;27;34783;-87
2022/04/08 07:38:06;;;;;;;3.47;1.20;;;;;;;12.65;43.71;99117.50;6530430;27;34858;-88
2022/04/08 07:41:09;;;;;;;2.17;1.10;;;;;;;12.68;41.54;99108.13;6551374;27;34116;-87
2022/04/08 07:44:12;;;;;;;3.80;1.33;;;;;;;12.79;40.63;99104.69;6551473;27;33715;-86
2022/04/08 07:47:18;;;;;;;5.12;1.23;;;;;;;12.82;38.53;99120.47;6551208;27;33922;-86
2022/04/08 07:50:21;;;;;;;2.10;0.98;;;;;;;12.82;37.94;99119.63;6534867;27;33415;-87
2022/04/08 07:53:24;;;;;;;4.00;0.95;;;;;;;12.83;38.65;99111.28;6552172;27;34852;-87
2022/04/08 07:56:27;;;;;;;7.47;1.10;;;;;;;12.87;37.25;99150.34;6531557;27;32540;-86
2022/04/08 07:59:30;;;;;;;2.85;1.00;;;;;;;12.81;37.70;99143.12;6552384;27;33763;-86
2022/04/08 08:02:33;;;;;;;7.20;1.15;;;;;;;12.88;37.64;99145.75;6552531;27;34962;-87
2022/04/08 08:05:36;;;;;;;9.02;1.52;;;;;;;12.92;37.69;99123.47;6532769;27;32959;-87
2022/04/08 08:08:39;;;;;;;6.57;1.15;;;;;;;12.97;37.60;99127.38;6532380;27;32655;-87
2022/04/08 08:11:42;;;;;;;2.00;0.90;;;;;;;12.91;37.04;99124.50;6551586;27;33970;-86
2022/04/08 08:14:45;;;;;;;4.20;1.20;;;;;;;12.89;37.26;99120.38;6532520;27;32480;-86
2022/04/08 08:17:49;;;;;;;1.50;1.00;;;;;;;12.84;37.40;99115.66;6552000;27;35311;-86
2022/04/08 08:20:52;;;;;;;5.37;1.02;;;;;;;12.73;36.75;99118.28;6540695;27;34139;-86
2022/04/08 08:23:55;;;;;;;4.40;1.25;;;;;;;12.75;37.07;99141.28;6550974;27;33542;-87
2022/04/08 08:26:58;;;;;;;3.70;1.23;;;;;;;12.77;37.96;99123.00;6531216;27;32620;-87
2022/04/08 08:30:02;;;;;;;4.22;1.05;;;;;;;12.84;36.72;99122.91;6552122;27;33817;-87
2022/04/08 08:33:06;;;;;;;6.32;1.23;;;;;;;13.00;38.00;99145.84;6555994;27;33645;-87
2022/04/08 08:36:09;;;;;;;1.75;1.30;;;;;;;13.06;37.09;99169.25;6552906;27;34580;-86
2022/04/08 08:39:12;;;;;;;1.65;1.05;;;;;;;13.19;36.85;99182.62;6531899;27;33601;-86
2022/04/08 08:42:15;;;;;;;3.80;1.10;;;;;;;13.19;36.81;99195.31;6532666;27;34505;-86
2022/04/08 08:45:18;;;;;;;6.20;0.93;;;;;;;13.42;36.71;99187.38;6531872;27;32512;-87
2022/04/08 08:48:22;;;;;;;1.85;0.90;;;;;;;13.30;34.19;99184.59;6534038;27;32660;-87
2022/04/08 08:51:26;;;;;;;3.28;1.08;;;;;;;13.34;33.72;99195.81;6537719;27;34289;-90
2022/04/08 08:54:31;;;;;;;2.22;1.00;;;;;;;13.36;32.76;99199.94;6552383;27;34463;-90
2022/04/08 08:57:34;;;;;;;3.22;1.23;;;;;;;13.49;33.05;99211.66;6552399;27;34222;-90
2022/04/08 09:00:37;;;;;;;1.92;0.82;;;;;;;13.50;32.89;99218.72;6552581;27;34707;-87
2022/04/08 09:03:42;;;;;;;3.78;1.25;;;;;;;13.59;31.88;99217.34;6531719;27;33334;-87
2022/04/08 09:06:45;;;;;;;3.12;1.12;;;;;;;13.64;31.31;99212.09;6551379;27;35227;-86
2022/04/08 09:09:53;;;;;;;4.65;0.70;;;;;;;13.62;30.99;99242.06;6551235;27;33933;-87
2022/04/08 09:12:57;;;;;;;1.15;1.00;;;;;;;13.67;31.10;99225.19;6535423;27;32607;-87
2022/04/08 09:16:01;;;;;;;3.37;0.85;;;;;;;13.73;31.62;99239.69;6556875;27;33564;-86
2022/04/08 09:19:12;;;;;;;1.77;0.90;;;;;;;13.70;32.09;99243.66;6550804;27;35434;-87
2022/04/08 09:22:16;;;;;;;2.75;1.15;;;;;;;13.79;32.13;99230.66;6531233;27;32668;-87
2022/04/08 09:25:23;;;;;;;4.57;1.17;;;;;;;13.89;33.63;99236.34;6531387;27;35072;-87
2022/04/08 09:28:35;;;;;;;3.60;1.05;;;;;;;14.23;34.11;99240.25;6531932;27;33334;-87
2022/04/08 09:31:38;;;;;;;5.45;1.85;;;;;;;14.35;32.16;99234.06;6552681;27;34422;-86
2022/04/08 09:34:43;;;;;;;4.95;1.10;;;;;;;14.36;32.10;99238.41;6551531;27;34343;-86
2022/04/08 09:37:59;;;;;;;2.12;1.00;;;;;;;14.58;32.04;99245.00;6555875;27;33914;-86
2022/04/08 09:41:06;;;;;;;5.25;1.35;;;;;;;14.76;31.93;99244.09;6535161;27;32918;-87
2022/04/08 09:44:12;;;;;;;13.95;1.95;;;;;;;15.08;32.19;99250.03;6531452;27;32735;-86
2022/04/08 09:47:15;;;;;;;4.20;0.98;;;;;;;15.33;31.02;99254.41;6553218;27;33919;-86
2022/04/08 09:50:18;;;;;;;4.55;0.93;;;;;;;15.76;31.58;99262.16;6533501;27;32925;-87
2022/04/08 09:53:24;;;;;;;2.50;0.80;;;;;;;15.91;30.72;99258.91;6535029;27;34019;-87
2022/04/08 09:56:28;;;;;;;3.65;1.30;;;;;;;16.20;30.37;99258.97;6552364;27;34899;-87
2022/04/08 09:59:35;;;;;;;3.00;0.85;;;;;;;16.20;29.25;99259.78;6516875;27;32895;-87
2022/04/08 10:02:59;;;;;;;5.03;1.27;;;;;;;16.16;28.97;99245.03;6534180;27;32891;-87
2022/04/08 10:06:02;;;;;;;3.35;0.90;;;;;;;16.22;28.86;99232.38;6555773;27;33588;-87
2022/04/08 10:09:09;;;;;;;2.92;0.93;;;;;;;15.73;29.64;99223.81;6572633;27;35429;-86
2022/04/08 10:12:30;;;;;;;0.70;0.70;;;;;;;15.74;29.86;99242.59;6570096;27;35381;-90
2022/04/08 10:15:43;;;;;;;3.53;0.93;;;;;;;15.91;29.69;99225.53;6542756;27;32482;-86
2022/04/08 10:18:49;;;;;;;1.92;0.90;;;;;;;16.17;29.45;99248.59;6545616;27;35455;-87
2022/04/08 10:21:53;;;;;;;4.12;0.90;;;;;;;16.30;28.97;99251.03;6537781;27;32301;-86
2022/04/08 10:24:56;;;;;;;6.57;0.95;;;;;;;16.59;29.06;99242.84;6553801;27;34026;-86
2022/04/08 10:27:59;;;;;;;2.87;1.27;;;;;;;16.77;28.22;99253.50;6536253;27;33556;-87
2022/04/08 10:31:24;;;;;;;5.05;1.00;;;;;;;17.20;27.92;99249.31;6562907;27;33760;-87
2022/04/08 10:34:27;;;;;;;2.28;1.10;;;;;;;18.06;27.94;99257.84;6564951;27;34031;-87
2022/04/08 10:37:30;;;;;;;1.17;0.75;;;;;;;18.17;26.43;99247.91;6562515;27;33968;-87
2022/04/08 10:40:39;;;;;;;1.92;0.80;;;;;;;17.95;26.38;99241.63;6559545;27;34983;-86
2022/04/08 10:43:44;;;;;;;4.75;1.10;;;;;;;17.74;26.83;99237.81;6535439;27;33462;-87
2022/04/08 10:46:51;;;;;;;2.65;0.90;;;;;;;17.66;27.45;99237.16;6543159;27;33164;-86
2022/04/08 10:50:03;;;;;;;2.40;0.88;;;;;;;18.07;26.25;99240.41;6564709;27;34102;-86
2022/04/08 10:53:39;;;;;;;1.52;0.60;;;;;;;17.83;27.35;99245.31;6551931;27;35118;-86
2022/04/08 10:56:43;;;;;;;5.28;1.00;;;;;;;17.84;26.79;99240.69;6519072;27;33663;-86
2022/04/08 10:59:52;;;;;;;1.30;0.60;;;;;;;17.90;26.67;99245.09;6556312;27;34471;-86
2022/04/08 11:02:56;;;;;;;;;;;;;;;17.90;26.26;99231.50;6535896;27;33441;-90
2022/04/08 11:05:59;;;;;;;0.93;0.90;;;;;;;17.71;26.75;99236.41;6551853;27;34603;-90
2022/04/08 11:09:10;;;;;;;4.60;1.05;;;;;;;17.28;26.91;99242.62;6551755;27;34948;-91
2022/04/08 11:12:13;;;;;;;2.92;1.10;;;;;;;17.18;27.77;99243.28;6553482;27;34935;-87
2022/04/08 11:15:23;;;;;;;3.20;1.10;;;;;;;16.87;28.36;99231.94;6544069;27;33395;-86
2022/04/08 11:18:26;;;;;;;2.72;1.15;;;;;;;16.77;28.67;99234.50;6564617;27;34252;-86
2022/04/08 11:21:29;;;;;;;3.12;1.35;;;;;;;16.92;29.71;99233.91;6533852;27;33733;-87
2022/04/08 11:24:39;;;;;;;1.55;0.90;;;;;;;16.56;29.36;99241.44;6556627;27;33940;-86
2022/04/08 11:27:42;;;;;;;3.37;0.95;;;;;;;16.30;30.36;99254.56;6531407;27;33023;-86
2022/04/08 11:30:58;;;;;;;;;;;;;;;16.16;30.62;99250.47;6558726;27;34046;-87
2022/04/08 11:34:02;;;;;;;0.82;0.77;;;;;;;16.14;30.38;99249.06;6539790;27;34384;-86
2022/04/08 11:37:05;;;;;;;3.75;1.02;;;;;;;16.09;30.79;99247.09;6543184;27;33135;-86
2022/04/08 11:40:17;;;;;;;3.35;0.80;;;;;;;16.15;30.58;99242.59;6553674;27;34475;-86
2022/04/08 11:43:20;;;;;;;2.55;1.00;;;;;;;16.07;30.86;99243.78;6533191;27;33521;-87
2022/04/08 11:46:23;;;;;;;2.05;1.08;;;;;;;16.02;32.66;99236.34;6535046;27;32411;-86
2022/04/08 11:49:27;;;;;;;3.20;1.23;;;;;;;16.14;31.49;99227.34;6555243;27;34047;-87
2022/04/08 11:52:30;;;;;;;3.70;0.95;;;;;;;16.17;31.18;99237.72;6552489;27;33598;-87
2022/04/08 11:55:34;;;;;;;1.27;1.08;;;;;;;16.17;31.88;99229.56;6560249;27;34461;-88
2022/04/08 11:58:38;;;;;;;1.30;1.00;;;;;;;16.12;32.95;99234.91;6569104;27;34324;-87
2022/04/08 12:01:41;;;;;;;6.55;1.00;;;;;;;16.24;32.02;99231.09;6565718;27;34409;-87
2022/04/08 12:04:44;;;;;;;4.12;1.17;;;;;;;16.24;32.40;99227.56;6523622;27;32892;-87
2022/04/08 12:07:47;;;;;;;3.85;1.27;;;;;;;16.43;32.41;99220.00;6553845;27;33774;-87
2022/04/08 12:10:52;;;;;;;2.55;1.42;;;;;;;16.66;32.51;99221.75;6536280;27;34043;-87
2022/04/08 12:13:58;;;;;;;3.08;1.08;;;;;;;16.86;31.92;99229.47;6554393;27;34199;-87
2022/04/08 12:17:02;;;;;;;5.32;1.58;;;;;;;17.49;31.27;99211.06;6537235;27;35720;-87
2022/04/08 12:20:10;;;;;;;1.80;1.00;;;;;;;18.26;30.20;99213.66;6542028;27;32681;-87
2022/04/08 12:23:13;;;;;;;6.43;1.50;;;;;;;19.00;29.42;99203.97;6534924;27;32762;-87
2022/04/08 12:26:18;;;;;;;3.15;1.25;;;;;;;19.63;28.60;99202.16;6532539;27;32777;-87
2022/04/08 12:29:27;;;;;;;2.75;1.08;;;;;;;20.50;27.87;99196.94;6552529;27;33639;-85
2022/04/08 12:32:35;;;;;;;1.35;1.15;;;;;;;20.83;27.72;99194.84;6563612;27;33872;-86
2022/04/08 12:35:38;;;;;;;6.22;1.25;;;;;;;21.38;27.60;99178.59;6560599;27;35210;-89
2022/04/08 12:38:42;;;;;;;4.37;1.40;;;;;;;21.08;27.75;99176.72;6532981;27;32569;-90
2022/04/08 12:41:47;;;;;;;2.72;1.20;;;;;;;20.76;28.36;99167.72;6550930;27;34116;-90
2022/04/08 12:44:51;;;;;;;6.20;1.30;;;;;;;20.11;29.81;99164.66;6534070;27;32644;-89
2022/04/08 12:47:54;;;;;;;3.53;1.77;;;;;;;20.48;28.79;99154.59;6557598;27;33874;-89
2022/04/08 12:50:57;;;;;;;3.33;1.42;;;;;;;20.43;28.81;99155.41;6533090;27;33815;-86
2022/04/08 12:54:02;;;;;;;2.80;1.20;;;;;;;19.76;29.19;99142.72;6552546;27;33670;-86
2022/04/08 12:57:06;;;;;;;1.52;1.20;;;;;;;19.40;29.62;99135.19;6532378;27;32483;-86
2022/04/08 13:00:12;;;;;;;10.52;1.42;;;;;;;18.98;30.66;99141.53;6539795;27;34093;-86
2022/04/08 13:03:15;;;;;;;7.40;1.58;;;;;;;19.19;30.10;99147.91;6549629;27;32817;-86
2022/04/08 13:06:18;;;;;;;3.42;1.20;;;;;;;18.70;30.94;99145.38;6567951;27;33981;-86
2022/04/08 13:09:21;;;;;;;3.90;1.50;;;;;;;18.34;31.46;99138.81;6553216;27;33486;-86
2022/04/08 13:12:24;;;;;;;5.80;1.40;;;;;;;18.13;34.28;99135.06;6532425;27;32750;-86
2022/04/08 13:15:27;;;;;;;2.37;1.30;;;;;;;17.90;34.50;99126.16;6559213;27;33660;-86
2022/04/08 13:18:30;;;;;;;3.42;1.50;;;;;;;18.07;33.35;99122.47;6552194;27;33927;-86
2022/04/08 13:21:32;;;;;;;2.92;1.40;;;;;;;20.74;30.75;99107.03;6552407;27;34634;-86
2022/04/08 13:24:35;;;;;;;4.85;1.45;;;;;;;22.11;27.36;99104.84;6533418;27;33698;-86
2022/04/08 13:27:38;;;;;;;4.22;1.30;;;;;;;20.60;29.08;99108.69;6554443;27;33880;-86
2022/04/08 13:30:42;;;;;;;4.12;1.23;;;;;;;19.73;30.99;99113.22;6552035;27;34036;-86
2022/04/08 13:33:45;;;;;;;3.42;1.37;;;;;;;19.30;31.54;99105.09;6532606;27;35843;-86
2022/04/08 13:36:48;;;;;;;6.45;1.85;;;;;;;19.75;31.75;99094.66;6531819;27;32774;-86
2022/04/08 13:39:51;;;;;;;1.98;1.50;;;;;;;20.70;29.99;99073.09;6557867;27;33959;-87
2022/04/08 13:43:02;;;;;;;7.87;1.48;;;;;;;20.85;30.26;99066.78;6547489;27;32822;-86
2022/04/08 13:46:04;;;;;;;1.92;1.20;;;;;;;20.36;29.96;99061.94;6568046;27;35356;-87
2022/04/08 13:49:08;;;;;;;6.87;1.98;;;;;;;19.95;31.21;99072.84;6562149;27;34294;-87
2022/04/08 13:52:10;;;;;;;3.28;1.80;;;;;;;19.59;32.08;99077.38;6552466;27;34325;-87
2022/04/08 13:55:14;;;;;;;6.55;1.42;;;;;;;19.26;32.68;99076.72;6551912;27;34579;-87
2022/04/08 13:58:17;;;;;;;4.55;1.58;;;;;;;19.03;33.54;99067.06;6532697;27;32660;-86
2022/04/08 14:01:21;;;;;;;6.78;1.92;;;;;;;18.26;34.06;99072.00;6532368;27;32811;-87
2022/04/08 14:04:24;;;;;;;4.55;1.60;;;;;;;17.81;34.63;99054.19;6531768;27;33902;-86
2022/04/08 14:07:27;;;;;;;3.92;1.60;;;;;;;17.50;35.45;99058.44;6552140;27;34667;-88
2022/04/08 14:10:30;;;;;;;5.12;1.85;;;;;;;17.33;37.17;99055.00;6559571;27;34675;-88
2022/04/08 14:13:35;;;;;;;4.62;1.98;;;;;;;17.34;36.64;99046.56;6552810;27;34217;-87
2022/04/08 14:16:38;;;;;;;6.18;2.12;;;;;;;17.41;35.95;99049.09;6532792;27;32818;-88
2022/04/08 14:19:42;;;;;;;3.50;1.55;;;;;;;17.73;34.93;99030.09;6532799;27;32252;-87
2022/04/08 14:22:45;;;;;;;5.53;1.92;;;;;;;18.00;34.45;99013.75;6532356;27;32371;-87
2022/04/08 14:25:49;;;;;;;7.20;1.73;;;;;;;17.49;34.92;99013.28;6554050;27;34143;-88
2022/04/08 14:28:52;;;;;;;5.57;1.95;;;;;;;17.37;35.72;99018.84;6556909;27;33929;-88
2022/04/08 14:31:54;;;;;;;6.85;2.20;;;;;;;17.28;37.03;99000.50;6553793;27;33691;-88
2022/04/08 14:34:58;;;;;;;6.03;2.30;;;;;;;17.36;36.46;98998.16;6537470;27;32628;-88
2022/04/08 14:38:00;;;;;;;6.37;2.40;;;;;;;17.19;36.38;99000.97;6534773;27;32824;-88
2022/04/08 14:41:04;;;;;;;3.28;2.45;;;;;;;16.77;39.76;98989.88;6567329;27;34903;-87
2022/04/08 14:44:07;;;;;;;4.22;2.30;;;;;;;16.66;38.47;98975.28;6554281;27;33145;-88
2022/04/08 14:47:10;;;;;;;5.72;2.67;;;;;;;16.48;38.27;98976.41;6561165;27;35481;-91
2022/04/08 14:50:13;;;;;;;6.07;2.83;;;;;;;16.28;39.54;98981.56;6531210;27;32348;-91
2022/04/08 14:53:18;;;;;;;5.15;3.67;;;;;;;16.40;40.40;98976.03;6550394;27;34463;-91
2022/04/08 14:56:24;;;;;;;5.97;3.28;;;;;;;16.36;39.54;98964.84;6530563;27;33372;-87
2022/04/08 14:59:27;;;;;;;8.73;3.97;;;;;;;16.44;39.78;98952.69;6551890;27;34827;-87
2022/04/08 15:02:30;;;;;;;7.37;4.20;;;;;;;16.38;40.78;98940.97;6532912;27;32477;-87
2022/04/08 15:05:33;;;;;;;4.80;3.55;;;;;;;16.24;41.73;98939.69;6558188;27;34795;-87
2022/04/08 15:08:36;;;;;;;8.63;4.45;;;;;;;15.99;42.92;98940.94;6532200;27;32755;-87
2022/04/08 15:11:39;;;;;;;8.20;4.37;;;;;;;15.89;43.48;98920.97;6531751;27;33282;-87
2022/04/08 15:14:43;;;;;;;9.10;4.47;;;;;;;15.74;44.21;98902.59;6552520;27;33865;-87
2022/04/08 15:17:50;;;;;;;9.13;4.50;;;;;;;15.65;45.44;98894.00;6532411;27;32516;-87
2022/04/08 15:20:53;;;;;;;9.60;4.75;;;;;;;15.71;45.35;98875.94;6533802;27;32577;-88
2022/04/08 15:23:57;;;;;;;11.45;5.37;;;;;;;15.64;46.66;98871.44;6538702;27;32975;-87
2022/04/08 15:27:00;;;;;;;9.98;5.47;;;;;;;15.57;47.65;98881.66;6531525;27;32753;-87
2022/04/08 15:30:05;;;;;;;10.73;5.35;;;;;;;15.61;49.05;98874.66;6532182;27;33026;-87
2022/04/08 15:33:08;;;;;;;10.43;6.40;;;;;;;15.67;48.25;98877.47;6532149;27;34372;-87
2022/04/08 15:36:11;;;;;;;12.40;7.00;;;;;;;15.63;49.13;98869.00;6552647;27;34000;-87
2022/04/08 15:39:14;;;;;;;15.82;6.90;;;;;;;15.56;51.07;98874.59;6552865;27;33879;-88
2022/04/08 15:42:17;;;;;;;14.73;7.50;;;;;;;15.58;52.30;98877.06;6533910;27;32408;-88
2022/04/08 15:45:20;;;;;;;13.70;7.20;;;;;;;15.63;51.96;98861.69;6552441;27;34182;-87
2022/04/08 15:48:23;;;;;;;10.75;7.55;;;;;;;15.67;52.15;98856.56;6532137;27;32669;-88
2022/04/08 15:51:27;;;;;;;14.73;8.18;;;;;;;15.71;52.62;98855.06;6550569;27;35822;-87
2022/04/08 15:54:30;;;;;;;13.77;7.93;;;;;;;15.57;53.66;98851.81;6531689;27;33838;-88
